sensor_id;sensor_type;location;lat;lon;timestamp;temperature;humidity
18339;DHT22;9295;44.484;11.240;2023-11-18T00:01:37;7.10;99.90
18339;DHT22;9295;44.484;11.240;2023-11-18T00:04:06;7.10;99.90
18339;DHT22;9295;44.484;11.240;2023-11-18T00:06:44;7.10;99.90
18339;DHT22;9295;44.484;11.240;2023-11-18T00:09:13;7.20;99.90
18339;DHT22;9295;44.484;11.240;2023-11-18T00:11:42;7.20;99.90
18339;DHT22;9295;44.484;11.240;2023-11-18T00:14:11;7.30;99.90
18339;DHT22;9295;44.484;11.240;2023-11-18T00:16:40;7.30;99.90
18339;DHT22;9295;44.484;11.240;2023-11-18T00:19:09;7.30;99.90
18339;DHT22;9295;44.484;11.240;2023-11-18T00:21:38;7.30;99.90
18339;DHT22;9295;44.484;11.240;2023-11-18T00:24:08;7.30;99.90
18339;DHT22;9295;44.484;11.240;2023-11-18T00:26:37;7.30;99.90
18339;DHT22;9295;44.484;11.240;2023-11-18T00:29:05;7.30;99.90
18339;DHT22;9295;44.484;11.240;2023-11-18T00:31:35;7.20;99.90
18339;DHT22;9295;44.484;11.240;2023-11-18T00:34:03;7.20;99.90
18339;DHT22;9295;44.484;11.240;2023-11-18T00:36:32;7.10;99.90
18339;DHT22;9295;44.484;11.240;2023-11-18T00:39:01;7.10;99.90
18339;DHT22;9295;44.484;11.240;2023-11-18T00:41:34;7.10;99.90
18339;DHT22;9295;44.484;11.240;2023-11-18T00:44:02;7.10;99.90
18339;DHT22;9295;44.484;11.240;2023-11-18T00:46:31;7.10;99.90
18339;DHT22;9295;44.484;11.240;2023-11-18T00:49:03;7.20;99.90
18339;DHT22;9295;44.484;11.240;2023-11-18T00:51:33;7.20;99.90
18339;DHT22;9295;44.484;11.240;2023-11-18T00:54:02;7.20;99.90
18339;DHT22;9295;44.484;11.240;2023-11-18T00:56:34;7.30;99.90
18339;DHT22;9295;44.484;11.240;2023-11-18T00:59:03;7.30;99.90
18339;DHT22;9295;44.484;11.240;2023-11-18T01:01:33;7.30;99.90
18339;DHT22;9295;44.484;11.240;2023-11-18T01:04:02;7.30;99.90
18339;DHT22;9295;44.484;11.240;2023-11-18T01:06:32;7.30;99.90
18339;DHT22;9295;44.484;11.240;2023-11-18T01:09:01;7.30;99.90
18339;DHT22;9295;44.484;11.240;2023-11-18T01:11:30;7.40;99.90
18339;DHT22;9295;44.484;11.240;2023-11-18T01:14:01;7.40;99.90
18339;DHT22;9295;44.484;11.240;2023-11-18T01:16:30;7.40;99.90
18339;DHT22;9295;44.484;11.240;2023-11-18T01:18:58;7.40;99.90
18339;DHT22;9295;44.484;11.240;2023-11-18T01:21:27;7.30;99.90
18339;DHT22;9295;44.484;11.240;2023-11-18T01:23:56;7.20;99.90
18339;DHT22;9295;44.484;11.240;2023-11-18T01:26:24;7.10;99.90
18339;DHT22;9295;44.484;11.240;2023-11-18T01:28:54;7.00;99.90
18339;DHT22;9295;44.484;11.240;2023-11-18T01:31:24;6.90;99.90
18339;DHT22;9295;44.484;11.240;2023-11-18T01:33:58;6.90;99.90
18339;DHT22;9295;44.484;11.240;2023-11-18T01:36:27;6.90;99.90
18339;DHT22;9295;44.484;11.240;2023-11-18T01:38:55;6.90;99.90
18339;DHT22;9295;44.484;11.240;2023-11-18T01:41:24;6.80;99.90
18339;DHT22;9295;44.484;11.240;2023-11-18T01:43:52;6.80;99.90
18339;DHT22;9295;44.484;11.240;2023-11-18T01:46:21;6.60;99.90
18339;DHT22;9295;44.484;11.240;2023-11-18T01:48:52;6.60;99.90
18339;DHT22;9295;44.484;11.240;2023-11-18T01:51:21;6.60;99.90
18339;DHT22;9295;44.484;11.240;2023-11-18T01:53:50;6.50;99.90
18339;DHT22;9295;44.484;11.240;2023-11-18T01:56:19;6.50;99.90
18339;DHT22;9295;44.484;11.240;2023-11-18T01:58:52;6.50;99.90
18339;DHT22;9295;44.484;11.240;2023-11-18T02:01:21;6.40;99.90
18339;DHT22;9295;44.484;11.240;2023-11-18T02:03:51;6.40;99.90
18339;DHT22;9295;44.484;11.240;2023-11-18T02:06:20;6.40;99.90
18339;DHT22;9295;44.484;11.240;2023-11-18T02:08:49;6.40;99.90
18339;DHT22;9295;44.484;11.240;2023-11-18T02:11:20;6.40;99.90
18339;DHT22;9295;44.484;11.240;2023-11-18T02:13:53;6.50;99.90
18339;DHT22;9295;44.484;11.240;2023-11-18T02:16:24;6.50;99.90
18339;DHT22;9295;44.484;11.240;2023-11-18T02:18:54;6.50;99.90
18339;DHT22;9295;44.484;11.240;2023-11-18T02:21:24;6.50;99.90
18339;DHT22;9295;44.484;11.240;2023-11-18T02:23:54;6.60;99.90
18339;DHT22;9295;44.484;11.240;2023-11-18T02:26:24;6.60;99.90
18339;DHT22;9295;44.484;11.240;2023-11-18T02:28:53;6.60;99.90
18339;DHT22;9295;44.484;11.240;2023-11-18T02:31:27;6.60;99.90
18339;DHT22;9295;44.484;11.240;2023-11-18T02:34:02;6.60;99.90
18339;DHT22;9295;44.484;11.240;2023-11-18T02:36:52;6.50;99.90
18339;DHT22;9295;44.484;11.240;2023-11-18T02:39:29;6.40;99.90
18339;DHT22;9295;44.484;11.240;2023-11-18T02:42:01;6.40;99.90
18339;DHT22;9295;44.484;11.240;2023-11-18T02:44:30;6.50;99.90
18339;DHT22;9295;44.484;11.240;2023-11-18T02:47:00;6.50;99.90
18339;DHT22;9295;44.484;11.240;2023-11-18T02:49:30;6.50;99.90
18339;DHT22;9295;44.484;11.240;2023-11-18T02:51:59;6.50;99.90
18339;DHT22;9295;44.484;11.240;2023-11-18T02:54:27;6.50;99.90
18339;DHT22;9295;44.484;11.240;2023-11-18T02:56:56;6.50;99.90
18339;DHT22;9295;44.484;11.240;2023-11-18T02:59:27;6.50;99.90
18339;DHT22;9295;44.484;11.240;2023-11-18T03:01:58;6.50;99.90
18339;DHT22;9295;44.484;11.240;2023-11-18T03:04:29;6.40;99.90
18339;DHT22;9295;44.484;11.240;2023-11-18T03:06:58;6.30;99.90
18339;DHT22;9295;44.484;11.240;2023-11-18T03:09:27;6.20;99.90
18339;DHT22;9295;44.484;11.240;2023-11-18T03:11:55;6.20;99.90
18339;DHT22;9295;44.484;11.240;2023-11-18T03:14:28;6.10;99.90
18339;DHT22;9295;44.484;11.240;2023-11-18T03:16:57;6.10;99.90
18339;DHT22;9295;44.484;11.240;2023-11-18T03:19:25;6.10;99.90
18339;DHT22;9295;44.484;11.240;2023-11-18T03:21:54;6.10;99.90
18339;DHT22;9295;44.484;11.240;2023-11-18T03:24:23;6.10;99.90
18339;DHT22;9295;44.484;11.240;2023-11-18T03:26:53;6.10;99.90
18339;DHT22;9295;44.484;11.240;2023-11-18T03:29:22;6.10;99.90
18339;DHT22;9295;44.484;11.240;2023-11-18T03:31:52;6.00;99.90
18339;DHT22;9295;44.484;11.240;2023-11-18T03:34:21;6.00;99.90
18339;DHT22;9295;44.484;11.240;2023-11-18T03:36:50;6.00;99.90
18339;DHT22;9295;44.484;11.240;2023-11-18T03:39:19;6.00;99.90
18339;DHT22;9295;44.484;11.240;2023-11-18T03:41:48;6.00;99.90
18339;DHT22;9295;44.484;11.240;2023-11-18T03:44:17;6.00;99.90
18339;DHT22;9295;44.484;11.240;2023-11-18T03:46:45;5.90;99.90
18339;DHT22;9295;44.484;11.240;2023-11-18T03:49:15;5.90;99.90
18339;DHT22;9295;44.484;11.240;2023-11-18T03:51:45;5.90;99.90
18339;DHT22;9295;44.484;11.240;2023-11-18T03:54:13;6.00;99.90
18339;DHT22;9295;44.484;11.240;2023-11-18T03:56:42;6.00;99.90
18339;DHT22;9295;44.484;11.240;2023-11-18T03:59:11;6.10;99.90
18339;DHT22;9295;44.484;11.240;2023-11-18T04:01:39;6.10;99.90
18339;DHT22;9295;44.484;11.240;2023-11-18T04:04:08;6.00;99.90
18339;DHT22;9295;44.484;11.240;2023-11-18T04:06:38;6.00;99.90
18339;DHT22;9295;44.484;11.240;2023-11-18T04:09:07;6.00;99.90
18339;DHT22;9295;44.484;11.240;2023-11-18T04:11:36;6.00;99.90
18339;DHT22;9295;44.484;11.240;2023-11-18T04:14:05;6.00;99.90
18339;DHT22;9295;44.484;11.240;2023-11-18T04:16:35;6.00;99.90
18339;DHT22;9295;44.484;11.240;2023-11-18T04:19:05;5.90;99.90
18339;DHT22;9295;44.484;11.240;2023-11-18T04:21:34;5.90;99.90
18339;DHT22;9295;44.484;11.240;2023-11-18T04:24:05;5.80;99.90
18339;DHT22;9295;44.484;11.240;2023-11-18T04:26:34;5.80;99.90
18339;DHT22;9295;44.484;11.240;2023-11-18T04:29:03;5.70;99.90
18339;DHT22;9295;44.484;11.240;2023-11-18T04:31:31;5.70;99.90
18339;DHT22;9295;44.484;11.240;2023-11-18T04:34:01;5.70;99.90
18339;DHT22;9295;44.484;11.240;2023-11-18T04:36:31;5.70;99.90
18339;DHT22;9295;44.484;11.240;2023-11-18T04:38:59;5.80;99.90
18339;DHT22;9295;44.484;11.240;2023-11-18T04:41:31;5.80;99.90
18339;DHT22;9295;44.484;11.240;2023-11-18T04:43:59;5.80;99.90
18339;DHT22;9295;44.484;11.240;2023-11-18T04:46:28;5.80;99.90
18339;DHT22;9295;44.484;11.240;2023-11-18T04:48:57;5.80;99.90
18339;DHT22;9295;44.484;11.240;2023-11-18T04:51:26;5.80;99.90
18339;DHT22;9295;44.484;11.240;2023-11-18T04:53:54;5.70;99.90
18339;DHT22;9295;44.484;11.240;2023-11-18T04:56:23;5.60;99.90
18339;DHT22;9295;44.484;11.240;2023-11-18T04:58:52;5.60;99.90
18339;DHT22;9295;44.484;11.240;2023-11-18T05:01:21;5.60;99.90
18339;DHT22;9295;44.484;11.240;2023-11-18T05:03:50;5.60;99.90
18339;DHT22;9295;44.484;11.240;2023-11-18T05:06:18;5.60;99.90
18339;DHT22;9295;44.484;11.240;2023-11-18T05:08:47;5.60;99.90
18339;DHT22;9295;44.484;11.240;2023-11-18T05:11:16;5.60;99.90
18339;DHT22;9295;44.484;11.240;2023-11-18T05:13:45;5.60;99.90
18339;DHT22;9295;44.484;11.240;2023-11-18T05:16:15;5.50;99.90
18339;DHT22;9295;44.484;11.240;2023-11-18T05:18:43;5.50;99.90
18339;DHT22;9295;44.484;11.240;2023-11-18T05:21:12;5.50;99.90
18339;DHT22;9295;44.484;11.240;2023-11-18T05:23:41;5.50;99.90
18339;DHT22;9295;44.484;11.240;2023-11-18T05:26:09;5.40;99.90
18339;DHT22;9295;44.484;11.240;2023-11-18T05:28:38;5.40;99.90
18339;DHT22;9295;44.484;11.240;2023-11-18T05:31:06;5.30;99.90
18339;DHT22;9295;44.484;11.240;2023-11-18T05:33:37;5.30;99.90
18339;DHT22;9295;44.484;11.240;2023-11-18T05:36:06;5.30;99.90
18339;DHT22;9295;44.484;11.240;2023-11-18T05:38:35;5.20;99.90
18339;DHT22;9295;44.484;11.240;2023-11-18T05:41:04;5.20;99.90
18339;DHT22;9295;44.484;11.240;2023-11-18T05:43:43;5.20;99.90
18339;DHT22;9295;44.484;11.240;2023-11-18T05:46:18;5.20;99.90
18339;DHT22;9295;44.484;11.240;2023-11-18T05:48:52;5.10;99.90
18339;DHT22;9295;44.484;11.240;2023-11-18T05:51:21;5.10;99.90
18339;DHT22;9295;44.484;11.240;2023-11-18T05:53:50;5.20;99.90
18339;DHT22;9295;44.484;11.240;2023-11-18T05:56:20;5.30;99.90
18339;DHT22;9295;44.484;11.240;2023-11-18T05:58:51;5.40;99.90
18339;DHT22;9295;44.484;11.240;2023-11-18T06:01:21;5.50;99.90
18339;DHT22;9295;44.484;11.240;2023-11-18T06:03:52;5.50;99.90
18339;DHT22;9295;44.484;11.240;2023-11-18T06:06:20;5.50;99.90
18339;DHT22;9295;44.484;11.240;2023-11-18T06:08:51;5.40;99.90
18339;DHT22;9295;44.484;11.240;2023-11-18T06:11:20;5.40;99.90
18339;DHT22;9295;44.484;11.240;2023-11-18T06:13:52;5.40;99.90
18339;DHT22;9295;44.484;11.240;2023-11-18T06:16:21;5.40;99.90
18339;DHT22;9295;44.484;11.240;2023-11-18T06:18:54;5.40;99.90
18339;DHT22;9295;44.484;11.240;2023-11-18T06:21:24;5.30;99.90
18339;DHT22;9295;44.484;11.240;2023-11-18T06:23:56;5.30;99.90
18339;DHT22;9295;44.484;11.240;2023-11-18T06:26:25;5.30;99.90
18339;DHT22;9295;44.484;11.240;2023-11-18T06:28:55;5.30;99.90
18339;DHT22;9295;44.484;11.240;2023-11-18T06:31:24;5.30;99.90
18339;DHT22;9295;44.484;11.240;2023-11-18T06:33:54;5.30;99.90
18339;DHT22;9295;44.484;11.240;2023-11-18T06:36:23;5.30;99.90
18339;DHT22;9295;44.484;11.240;2023-11-18T06:38:54;5.40;99.90
18339;DHT22;9295;44.484;11.240;2023-11-18T06:41:23;5.50;99.90
18339;DHT22;9295;44.484;11.240;2023-11-18T06:43:54;5.50;99.90
18339;DHT22;9295;44.484;11.240;2023-11-18T06:46:29;5.50;99.90
18339;DHT22;9295;44.484;11.240;2023-11-18T06:49:03;5.60;99.90
18339;DHT22;9295;44.484;11.240;2023-11-18T06:51:35;5.60;99.90
18339;DHT22;9295;44.484;11.240;2023-11-18T06:54:05;5.60;99.90
18339;DHT22;9295;44.484;11.240;2023-11-18T06:56:40;5.80;99.90
18339;DHT22;9295;44.484;11.240;2023-11-18T06:59:11;6.30;99.90
18339;DHT22;9295;44.484;11.240;2023-11-18T07:01:43;7.20;99.90
18339;DHT22;9295;44.484;11.240;2023-11-18T07:04:14;8.00;99.90
18339;DHT22;9295;44.484;11.240;2023-11-18T07:06:43;8.80;99.90
18339;DHT22;9295;44.484;11.240;2023-11-18T07:09:12;9.60;99.90
18339;DHT22;9295;44.484;11.240;2023-11-18T07:11:45;10.40;99.90
18339;DHT22;9295;44.484;11.240;2023-11-18T07:14:15;11.00;99.90
18339;DHT22;9295;44.484;11.240;2023-11-18T07:16:45;11.70;99.90
18339;DHT22;9295;44.484;11.240;2023-11-18T07:19:15;12.20;99.90
18339;DHT22;9295;44.484;11.240;2023-11-18T07:21:49;12.60;99.90
18339;DHT22;9295;44.484;11.240;2023-11-18T07:24:18;13.40;99.90
18339;DHT22;9295;44.484;11.240;2023-11-18T07:26:48;14.00;99.90
18339;DHT22;9295;44.484;11.240;2023-11-18T07:29:18;14.50;99.90
18339;DHT22;9295;44.484;11.240;2023-11-18T07:31:48;15.00;99.90
18339;DHT22;9295;44.484;11.240;2023-11-18T07:34:20;15.40;99.90
18339;DHT22;9295;44.484;11.240;2023-11-18T07:36:50;15.70;99.90
18339;DHT22;9295;44.484;11.240;2023-11-18T07:39:19;15.70;99.90
18339;DHT22;9295;44.484;11.240;2023-11-18T07:41:52;15.30;99.90
18339;DHT22;9295;44.484;11.240;2023-11-18T07:44:28;15.00;99.40
18339;DHT22;9295;44.484;11.240;2023-11-18T07:47:00;14.30;98.10
18339;DHT22;9295;44.484;11.240;2023-11-18T07:49:31;13.60;98.40
18339;DHT22;9295;44.484;11.240;2023-11-18T07:52:00;13.10;99.00
18339;DHT22;9295;44.484;11.240;2023-11-18T07:54:30;12.70;98.60
18339;DHT22;9295;44.484;11.240;2023-11-18T07:56:59;12.30;99.90
18339;DHT22;9295;44.484;11.240;2023-11-18T07:59:27;12.10;99.60
18339;DHT22;9295;44.484;11.240;2023-11-18T08:01:56;12.00;99.90
18339;DHT22;9295;44.484;11.240;2023-11-18T08:04:25;11.80;99.90
18339;DHT22;9295;44.484;11.240;2023-11-18T08:06:55;11.70;99.90
18339;DHT22;9295;44.484;11.240;2023-11-18T08:09:24;11.50;99.90
18339;DHT22;9295;44.484;11.240;2023-11-18T08:11:53;11.40;99.90
18339;DHT22;9295;44.484;11.240;2023-11-18T08:14:22;11.30;99.90
18339;DHT22;9295;44.484;11.240;2023-11-18T08:16:51;11.30;99.90
18339;DHT22;9295;44.484;11.240;2023-11-18T08:19:20;11.30;99.90
18339;DHT22;9295;44.484;11.240;2023-11-18T08:21:50;11.40;99.90
18339;DHT22;9295;44.484;11.240;2023-11-18T08:24:20;11.50;99.90
18339;DHT22;9295;44.484;11.240;2023-11-18T08:26:50;11.60;99.90
18339;DHT22;9295;44.484;11.240;2023-11-18T08:29:19;11.70;99.90
18339;DHT22;9295;44.484;11.240;2023-11-18T08:31:48;11.80;99.90
18339;DHT22;9295;44.484;11.240;2023-11-18T08:34:17;12.00;99.90
18339;DHT22;9295;44.484;11.240;2023-11-18T08:36:46;12.10;99.90
18339;DHT22;9295;44.484;11.240;2023-11-18T08:39:15;12.20;99.90
18339;DHT22;9295;44.484;11.240;2023-11-18T08:41:45;12.40;99.90
18339;DHT22;9295;44.484;11.240;2023-11-18T08:44:13;12.50;99.90
18339;DHT22;9295;44.484;11.240;2023-11-18T08:46:51;12.70;99.90
18339;DHT22;9295;44.484;11.240;2023-11-18T08:49:20;13.00;99.90
18339;DHT22;9295;44.484;11.240;2023-11-18T08:51:50;13.10;99.90
18339;DHT22;9295;44.484;11.240;2023-11-18T08:54:24;13.30;99.90
18339;DHT22;9295;44.484;11.240;2023-11-18T08:57:05;13.40;99.90
18339;DHT22;9295;44.484;11.240;2023-11-18T08:59:51;13.50;99.90
18339;DHT22;9295;44.484;11.240;2023-11-18T09:02:20;13.70;99.90
18339;DHT22;9295;44.484;11.240;2023-11-18T09:04:51;13.80;99.90
18339;DHT22;9295;44.484;11.240;2023-11-18T09:07:22;14.00;99.00
18339;DHT22;9295;44.484;11.240;2023-11-18T09:09:51;14.20;98.00
18339;DHT22;9295;44.484;11.240;2023-11-18T09:12:21;14.20;97.40
18339;DHT22;9295;44.484;11.240;2023-11-18T09:14:51;14.30;97.40
18339;DHT22;9295;44.484;11.240;2023-11-18T09:17:21;14.40;96.60
18339;DHT22;9295;44.484;11.240;2023-11-18T09:19:50;14.40;96.00
18339;DHT22;9295;44.484;11.240;2023-11-18T09:22:20;14.50;95.30
18339;DHT22;9295;44.484;11.240;2023-11-18T09:24:50;14.50;93.90
18339;DHT22;9295;44.484;11.240;2023-11-18T09:27:18;14.50;92.60
18339;DHT22;9295;44.484;11.240;2023-11-18T09:29:48;14.40;90.60
18339;DHT22;9295;44.484;11.240;2023-11-18T09:32:17;14.40;90.80
18339;DHT22;9295;44.484;11.240;2023-11-18T09:34:46;14.30;89.80
18339;DHT22;9295;44.484;11.240;2023-11-18T09:37:15;14.30;88.60
18339;DHT22;9295;44.484;11.240;2023-11-18T09:39:44;14.30;87.40
18339;DHT22;9295;44.484;11.240;2023-11-18T09:42:13;14.00;89.40
18339;DHT22;9295;44.484;11.240;2023-11-18T09:44:48;13.80;89.20
18339;DHT22;9295;44.484;11.240;2023-11-18T09:47:17;13.90;91.10
18339;DHT22;9295;44.484;11.240;2023-11-18T09:49:52;14.00;87.30
18339;DHT22;9295;44.484;11.240;2023-11-18T09:52:25;14.10;88.30
18339;DHT22;9295;44.484;11.240;2023-11-18T09:54:58;14.20;88.10
18339;DHT22;9295;44.484;11.240;2023-11-18T09:57:32;14.30;87.50
18339;DHT22;9295;44.484;11.240;2023-11-18T10:00:07;14.30;88.30
18339;DHT22;9295;44.484;11.240;2023-11-18T10:02:49;14.40;86.10
18339;DHT22;9295;44.484;11.240;2023-11-18T10:05:20;14.30;86.40
18339;DHT22;9295;44.484;11.240;2023-11-18T10:07:50;14.40;85.50
18339;DHT22;9295;44.484;11.240;2023-11-18T10:10:19;14.40;85.70
18339;DHT22;9295;44.484;11.240;2023-11-18T10:12:50;14.40;86.40
18339;DHT22;9295;44.484;11.240;2023-11-18T10:15:22;14.40;86.20
18339;DHT22;9295;44.484;11.240;2023-11-18T10:17:52;14.40;85.80
18339;DHT22;9295;44.484;11.240;2023-11-18T10:20:43;14.40;86.80
18339;DHT22;9295;44.484;11.240;2023-11-18T10:23:13;14.40;87.30
18339;DHT22;9295;44.484;11.240;2023-11-18T10:25:47;14.40;86.80
18339;DHT22;9295;44.484;11.240;2023-11-18T10:28:26;14.40;87.80
18339;DHT22;9295;44.484;11.240;2023-11-18T10:30:58;14.50;86.80
18339;DHT22;9295;44.484;11.240;2023-11-18T10:33:31;14.40;85.90
18339;DHT22;9295;44.484;11.240;2023-11-18T10:36:00;14.40;86.50
18339;DHT22;9295;44.484;11.240;2023-11-18T10:38:32;14.40;86.60
18339;DHT22;9295;44.484;11.240;2023-11-18T10:41:04;14.40;86.90
18339;DHT22;9295;44.484;11.240;2023-11-18T10:43:34;14.40;87.30
18339;DHT22;9295;44.484;11.240;2023-11-18T10:46:09;14.50;84.70
18339;DHT22;9295;44.484;11.240;2023-11-18T10:48:41;14.50;84.30
18339;DHT22;9295;44.484;11.240;2023-11-18T10:51:11;14.60;83.70
18339;DHT22;9295;44.484;11.240;2023-11-18T10:53:40;14.60;84.00
18339;DHT22;9295;44.484;11.240;2023-11-18T10:56:21;14.60;82.20
18339;DHT22;9295;44.484;11.240;2023-11-18T10:58:56;14.60;82.00
18339;DHT22;9295;44.484;11.240;2023-11-18T11:01:30;14.60;81.80
18339;DHT22;9295;44.484;11.240;2023-11-18T11:04:00;14.60;81.70
18339;DHT22;9295;44.484;11.240;2023-11-18T11:06:33;14.60;82.70
18339;DHT22;9295;44.484;11.240;2023-11-18T11:09:02;14.60;83.50
18339;DHT22;9295;44.484;11.240;2023-11-18T11:11:40;14.70;82.70
18339;DHT22;9295;44.484;11.240;2023-11-18T11:14:14;14.80;82.80
18339;DHT22;9295;44.484;11.240;2023-11-18T11:16:50;14.80;82.10
18339;DHT22;9295;44.484;11.240;2023-11-18T11:19:25;14.80;82.50
18339;DHT22;9295;44.484;11.240;2023-11-18T11:22:01;14.70;83.00
18339;DHT22;9295;44.484;11.240;2023-11-18T11:24:46;14.80;83.40
18339;DHT22;9295;44.484;11.240;2023-11-18T11:27:23;14.80;83.40
18339;DHT22;9295;44.484;11.240;2023-11-18T11:30:08;14.80;83.20
18339;DHT22;9295;44.484;11.240;2023-11-18T11:32:45;14.90;80.90
18339;DHT22;9295;44.484;11.240;2023-11-18T11:35:22;15.00;79.60
18339;DHT22;9295;44.484;11.240;2023-11-18T11:37:52;15.00;78.70
18339;DHT22;9295;44.484;11.240;2023-11-18T11:40:31;15.00;78.90
18339;DHT22;9295;44.484;11.240;2023-11-18T11:43:02;15.00;79.90
18339;DHT22;9295;44.484;11.240;2023-11-18T11:45:33;15.00;78.60
18339;DHT22;9295;44.484;11.240;2023-11-18T11:48:06;15.10;78.40
18339;DHT22;9295;44.484;11.240;2023-11-18T11:50:59;15.10;77.20
18339;DHT22;9295;44.484;11.240;2023-11-18T11:53:35;15.10;76.30
18339;DHT22;9295;44.484;11.240;2023-11-18T11:56:07;15.10;77.90
18339;DHT22;9295;44.484;11.240;2023-11-18T11:58:42;15.20;78.40
18339;DHT22;9295;44.484;11.240;2023-11-18T12:01:16;15.30;77.40
18339;DHT22;9295;44.484;11.240;2023-11-18T12:03:53;15.30;76.90
18339;DHT22;9295;44.484;11.240;2023-11-18T12:06:27;15.30;77.10
18339;DHT22;9295;44.484;11.240;2023-11-18T12:08:56;15.30;77.30
18339;DHT22;9295;44.484;11.240;2023-11-18T12:11:25;15.30;78.10
18339;DHT22;9295;44.484;11.240;2023-11-18T12:14:04;15.40;78.30
18339;DHT22;9295;44.484;11.240;2023-11-18T12:17:00;15.40;77.10
18339;DHT22;9295;44.484;11.240;2023-11-18T12:19:37;15.40;75.70
18339;DHT22;9295;44.484;11.240;2023-11-18T12:22:17;15.50;75.70
18339;DHT22;9295;44.484;11.240;2023-11-18T12:28:10;15.50;73.60
18339;DHT22;9295;44.484;11.240;2023-11-18T12:30:39;15.60;74.40
18339;DHT22;9295;44.484;11.240;2023-11-18T12:33:19;15.60;75.80
18339;DHT22;9295;44.484;11.240;2023-11-18T12:39:23;15.60;73.70
18339;DHT22;9295;44.484;11.240;2023-11-18T12:42:03;15.60;73.30
18339;DHT22;9295;44.484;11.240;2023-11-18T12:45:01;15.50;74.60
18339;DHT22;9295;44.484;11.240;2023-11-18T12:47:42;15.40;74.60
18339;DHT22;9295;44.484;11.240;2023-11-18T12:50:13;15.50;75.20
18339;DHT22;9295;44.484;11.240;2023-11-18T12:52:52;15.50;74.80
18339;DHT22;9295;44.484;11.240;2023-11-18T12:55:22;15.50;75.60
18339;DHT22;9295;44.484;11.240;2023-11-18T12:57:51;15.60;73.60
18339;DHT22;9295;44.484;11.240;2023-11-18T13:00:21;15.60;73.10
18339;DHT22;9295;44.484;11.240;2023-11-18T13:02:55;15.60;73.40
18339;DHT22;9295;44.484;11.240;2023-11-18T13:05:26;15.50;74.30
18339;DHT22;9295;44.484;11.240;2023-11-18T13:07:57;15.50;74.20
18339;DHT22;9295;44.484;11.240;2023-11-18T13:10:29;15.60;77.90
18339;DHT22;9295;44.484;11.240;2023-11-18T13:12:59;15.70;76.30
18339;DHT22;9295;44.484;11.240;2023-11-18T13:15:28;15.70;75.70
18339;DHT22;9295;44.484;11.240;2023-11-18T13:17:59;15.60;74.70
18339;DHT22;9295;44.484;11.240;2023-11-18T13:20:28;15.70;74.10
18339;DHT22;9295;44.484;11.240;2023-11-18T13:23:01;15.70;74.40
18339;DHT22;9295;44.484;11.240;2023-11-18T13:25:37;15.70;73.90
18339;DHT22;9295;44.484;11.240;2023-11-18T13:28:08;15.70;73.70
18339;DHT22;9295;44.484;11.240;2023-11-18T13:30:38;15.70;72.60
18339;DHT22;9295;44.484;11.240;2023-11-18T13:33:07;15.80;71.90
18339;DHT22;9295;44.484;11.240;2023-11-18T13:35:36;15.80;72.90
18339;DHT22;9295;44.484;11.240;2023-11-18T13:38:05;15.80;73.20
18339;DHT22;9295;44.484;11.240;2023-11-18T13:40:46;15.80;72.90
18339;DHT22;9295;44.484;11.240;2023-11-18T13:43:16;15.70;72.10
18339;DHT22;9295;44.484;11.240;2023-11-18T13:45:53;15.60;71.80
18339;DHT22;9295;44.484;11.240;2023-11-18T13:48:24;15.40;72.00
18339;DHT22;9295;44.484;11.240;2023-11-18T13:50:53;15.20;72.60
18339;DHT22;9295;44.484;11.240;2023-11-18T13:53:22;15.00;73.00
18339;DHT22;9295;44.484;11.240;2023-11-18T13:55:53;15.10;73.70
18339;DHT22;9295;44.484;11.240;2023-11-18T13:58:22;15.20;73.60
18339;DHT22;9295;44.484;11.240;2023-11-18T14:00:51;15.20;74.40
18339;DHT22;9295;44.484;11.240;2023-11-18T14:03:20;15.20;75.70
18339;DHT22;9295;44.484;11.240;2023-11-18T14:05:51;15.20;76.50
18339;DHT22;9295;44.484;11.240;2023-11-18T14:08:20;15.10;76.70
18339;DHT22;9295;44.484;11.240;2023-11-18T14:10:48;15.00;77.10
18339;DHT22;9295;44.484;11.240;2023-11-18T14:13:31;15.00;78.30
18339;DHT22;9295;44.484;11.240;2023-11-18T14:16:02;15.00;78.40
18339;DHT22;9295;44.484;11.240;2023-11-18T14:18:31;15.10;78.40
18339;DHT22;9295;44.484;11.240;2023-11-18T14:20:59;15.20;78.00
18339;DHT22;9295;44.484;11.240;2023-11-18T14:23:29;15.20;78.00
18339;DHT22;9295;44.484;11.240;2023-11-18T14:25:57;15.10;78.30
18339;DHT22;9295;44.484;11.240;2023-11-18T14:28:26;15.00;78.40
18339;DHT22;9295;44.484;11.240;2023-11-18T14:30:57;15.00;78.80
18339;DHT22;9295;44.484;11.240;2023-11-18T14:33:26;14.80;79.30
18339;DHT22;9295;44.484;11.240;2023-11-18T14:35:55;14.50;80.10
18339;DHT22;9295;44.484;11.240;2023-11-18T14:38:24;14.40;80.50
18339;DHT22;9295;44.484;11.240;2023-11-18T14:40:53;14.50;80.70
18339;DHT22;9295;44.484;11.240;2023-11-18T14:43:22;14.50;80.30
18339;DHT22;9295;44.484;11.240;2023-11-18T14:45:51;14.30;80.30
18339;DHT22;9295;44.484;11.240;2023-11-18T14:48:21;14.30;80.30
18339;DHT22;9295;44.484;11.240;2023-11-18T14:50:49;14.20;80.60
18339;DHT22;9295;44.484;11.240;2023-11-18T14:53:18;14.20;81.20
18339;DHT22;9295;44.484;11.240;2023-11-18T14:55:47;14.10;81.80
18339;DHT22;9295;44.484;11.240;2023-11-18T14:58:16;13.90;83.10
18339;DHT22;9295;44.484;11.240;2023-11-18T15:00:45;13.60;83.70
18339;DHT22;9295;44.484;11.240;2023-11-18T15:03:14;13.50;86.90
18339;DHT22;9295;44.484;11.240;2023-11-18T15:05:45;13.50;88.10
18339;DHT22;9295;44.484;11.240;2023-11-18T15:08:13;13.50;86.70
18339;DHT22;9295;44.484;11.240;2023-11-18T15:10:43;13.40;90.30
18339;DHT22;9295;44.484;11.240;2023-11-18T15:13:12;13.30;91.00
18339;DHT22;9295;44.484;11.240;2023-11-18T15:15:43;13.20;91.60
18339;DHT22;9295;44.484;11.240;2023-11-18T15:18:14;13.00;92.90
18339;DHT22;9295;44.484;11.240;2023-11-18T15:20:47;12.80;93.60
18339;DHT22;9295;44.484;11.240;2023-11-18T15:23:17;12.60;94.00
18339;DHT22;9295;44.484;11.240;2023-11-18T15:25:47;12.30;95.10
18339;DHT22;9295;44.484;11.240;2023-11-18T15:28:17;12.10;95.00
18339;DHT22;9295;44.484;11.240;2023-11-18T15:30:46;11.90;94.90
18339;DHT22;9295;44.484;11.240;2023-11-18T15:33:16;11.80;95.50
18339;DHT22;9295;44.484;11.240;2023-11-18T15:35:46;11.80;95.10
18339;DHT22;9295;44.484;11.240;2023-11-18T15:38:15;11.70;96.00
18339;DHT22;9295;44.484;11.240;2023-11-18T15:40:48;11.60;95.70
18339;DHT22;9295;44.484;11.240;2023-11-18T15:43:18;11.50;97.10
18339;DHT22;9295;44.484;11.240;2023-11-18T15:45:47;11.40;96.70
18339;DHT22;9295;44.484;11.240;2023-11-18T15:48:16;11.20;97.80
18339;DHT22;9295;44.484;11.240;2023-11-18T15:50:46;11.10;98.10
18339;DHT22;9295;44.484;11.240;2023-11-18T15:53:15;10.90;99.20
18339;DHT22;9295;44.484;11.240;2023-11-18T15:55:43;10.80;98.20
18339;DHT22;9295;44.484;11.240;2023-11-18T15:58:15;10.90;97.50
18339;DHT22;9295;44.484;11.240;2023-11-18T16:00:46;10.90;98.20
18339;DHT22;9295;44.484;11.240;2023-11-18T16:03:20;10.90;98.10
18339;DHT22;9295;44.484;11.240;2023-11-18T16:05:50;10.90;99.20
18339;DHT22;9295;44.484;11.240;2023-11-18T16:08:19;10.90;98.60